UACC/TSE METAR and TAF weather

Enter ICAO airport designator
Station Type Date Time Source
UACC METAR 2019/10/21 02:00 UTC NOAA

UACC 210200Z 11004MPS 9999 BKN017 M06/M09 Q1035 R04/0///70 NOSIG RMK QFE744/0993


Station Type Date Time Source
UACC Decoded METAR 2019/10/21 02:00 UTC NOAA

Astana, Kazakhstan (UACC) 51-12N 071-27E
Oct 20, 2019 - 10:00 PM EDT / 2019.10.21 0200 UTC
Wind: from the ESE (110 degrees) at 9 MPH (8 KT):0
Visibility: greater than 7 mile(s):0
Sky conditions: mostly cloudy
Temperature: 21 F (-6 C)
Windchill: 10 F (-12 C):1
Dew Point: 15 F (-9 C)
Relative Humidity: 79%
Pressure (altimeter): 30.56 in. Hg (1035 hPa)
ob: UACC 210200Z 11004MPS 9999 BKN017 M06/M09 Q1035 R04/0///70 NOSIG RMK QFE744/0993
cycle: 2

Station Type Date Time Source
UACC TAF 2019/10/21 01:24 UTC NOAA

TAF
AMD UACC 210115Z 2101/2124 08004MPS 9999 SCT011 TX01/2109Z TNM07/2101Z
BECMG 2103/2105 12004MPS SCT020
BECMG 2116/2118 19004MPS

Example: see airport list